createdAt,value
2016-05-08T00:00:01.585Z,0
2016-05-08T00:01:01.604Z,0
2016-05-08T00:02:01.668Z,0
2016-05-08T00:03:01.890Z,0
2016-05-08T00:04:01.846Z,0
2016-05-08T00:05:01.646Z,0
2016-05-08T00:07:01.682Z,0
2016-05-08T00:08:01.482Z,0
2016-05-08T00:09:01.515Z,0
2016-05-08T00:10:01.518Z,0
2016-05-08T00:11:01.865Z,0
2016-05-08T00:12:01.726Z,0
2016-05-08T00:13:16.776Z,0
2016-05-08T00:14:01.545Z,0
2016-05-08T00:15:01.531Z,0
2016-05-08T00:16:01.737Z,0
2016-05-08T00:17:01.568Z,0
2016-05-08T00:18:01.493Z,0
2016-05-08T00:19:01.761Z,0
2016-05-08T00:21:02.000Z,0
2016-05-08T00:22:01.769Z,0
2016-05-08T00:23:01.585Z,0
2016-05-08T00:24:02.400Z,0
2016-05-08T00:25:16.050Z,0
2016-05-08T00:26:01.740Z,0
2016-05-08T00:27:01.805Z,0
2016-05-08T00:28:01.995Z,0
2016-05-08T00:29:15.905Z,0
2016-05-08T00:30:01.767Z,0
2016-05-08T00:31:01.660Z,0
2016-05-08T00:32:01.710Z,0
2016-05-08T00:33:01.650Z,0
2016-05-08T00:34:02.214Z,0
2016-05-08T00:35:02.045Z,0
2016-05-08T00:36:01.861Z,0
2016-05-08T00:37:01.817Z,0
2016-05-08T00:38:02.007Z,0
2016-05-08T00:39:01.697Z,0
2016-05-08T00:40:01.669Z,0
2016-05-08T00:41:01.842Z,0
2016-05-08T00:42:01.736Z,0
2016-05-08T00:43:16.192Z,0
2016-05-08T00:44:16.195Z,0
2016-05-08T00:45:02.072Z,0
2016-05-08T00:46:01.731Z,0
2016-05-08T00:47:01.594Z,0
2016-05-08T00:48:01.894Z,0
2016-05-08T00:49:01.880Z,0
2016-05-08T00:50:01.899Z,0
2016-05-08T00:51:02.104Z,0
2016-05-08T00:52:02.122Z,0
2016-05-08T00:53:01.890Z,0
2016-05-08T00:54:01.753Z,0
2016-05-08T00:55:01.787Z,0
2016-05-08T00:56:01.930Z,0
2016-05-08T00:57:02.151Z,0
2016-05-08T00:58:02.435Z,0
2016-05-08T00:59:02.172Z,0
2016-05-08T01:00:01.988Z,0
2016-05-08T01:01:01.991Z,0
2016-05-08T01:02:01.978Z,0
2016-05-08T01:03:01.995Z,0
2016-05-08T01:04:01.827Z,0
2016-05-08T01:05:01.798Z,0
2016-05-08T01:06:02.004Z,0
2016-05-08T01:07:02.023Z,0
2016-05-08T01:08:02.228Z,0
2016-05-08T01:09:01.839Z,0
2016-05-08T01:10:02.217Z,0
2016-05-08T01:11:02.048Z,0
2016-05-08T01:12:01.551Z,0
2016-05-08T01:13:35.275Z,0
2016-05-08T01:14:02.010Z,0
2016-05-08T01:15:02.044Z,0
2016-05-08T01:16:02.062Z,0
2016-05-08T01:17:02.237Z,0
2016-05-08T01:18:02.442Z,0
2016-05-08T01:19:02.024Z,0
2016-05-08T01:20:02.104Z,0
2016-05-08T01:21:01.872Z,0
2016-05-08T01:22:02.063Z,0
2016-05-08T01:23:02.066Z,0
2016-05-08T01:24:02.240Z,0
2016-05-08T01:25:02.056Z,0
2016-05-08T01:26:02.105Z,0
2016-05-08T01:27:02.092Z,0
2016-05-08T01:28:02.423Z,0
2016-05-08T01:29:02.161Z,0
2016-05-08T01:30:01.929Z,0
2016-05-08T01:31:02.322Z,0
2016-05-08T01:32:02.152Z,0
2016-05-08T01:33:02.328Z,0
2016-05-08T01:34:16.190Z,0
2016-05-08T01:35:01.943Z,0
2016-05-08T01:36:02.335Z,0
2016-05-08T01:37:16.229Z,0
2016-05-08T01:38:02.309Z,0
2016-05-08T01:39:01.969Z,0
2016-05-08T01:40:02.206Z,0
2016-05-08T01:41:02.177Z,0
2016-05-08T01:42:02.148Z,0
2016-05-08T01:43:02.182Z,0
2016-05-08T01:44:02.404Z,0
2016-05-08T01:45:02.360Z,0
2016-05-08T01:46:02.378Z,0
2016-05-08T01:47:01.756Z,0
2016-05-08T01:48:02.212Z,0
2016-05-08T01:49:02.433Z,0
2016-05-08T01:50:01.904Z,0
2016-05-08T01:51:16.282Z,0
2016-05-08T01:52:02.175Z,0
2016-05-08T01:53:02.381Z,0
2016-05-08T01:54:02.290Z,0
2016-05-08T01:55:16.122Z,0
2016-05-08T01:56:02.202Z,0
2016-05-08T01:57:02.611Z,0
2016-05-08T01:58:03.863Z,0
2016-05-08T01:59:02.053Z,0
2016-05-08T02:00:02.431Z,0
2016-05-08T02:01:02.434Z,0
2016-05-08T02:02:01.797Z,0
2016-05-08T02:03:02.221Z,0
2016-05-08T02:04:02.254Z,0
2016-05-08T02:05:02.069Z,0
2016-05-08T02:06:02.119Z,0
2016-05-08T02:07:02.247Z,0
2016-05-08T02:08:02.282Z,0
2016-05-08T02:09:02.502Z,0
2016-05-08T02:10:02.286Z,0
2016-05-08T02:11:02.321Z,0
2016-05-08T02:12:02.136Z,0
2016-05-08T02:13:02.216Z,0
2016-05-08T02:14:02.266Z,0
2016-05-08T02:15:02.315Z,0
2016-05-08T02:16:02.318Z,0
2016-05-08T02:17:16.383Z,0
2016-05-08T02:18:02.527Z,0
2016-05-08T02:19:02.529Z,0
2016-05-08T02:20:16.267Z,0
2016-05-08T02:21:02.722Z,0
2016-05-08T02:22:02.334Z,0
2016-05-08T02:23:02.337Z,0
2016-05-08T02:24:02.371Z,0
2016-05-08T02:25:16.827Z,0
2016-05-08T02:27:02.347Z,0
2016-05-08T02:28:02.366Z,0
2016-05-08T02:29:02.525Z,0
2016-05-08T02:30:02.403Z,0
2016-05-08T02:31:02.343Z,0
2016-05-08T02:32:02.346Z,0
2016-05-08T02:33:02.786Z,0
2016-05-08T02:34:02.366Z,0
2016-05-08T02:35:02.400Z,0
2016-05-08T02:36:02.575Z,0
2016-05-08T02:37:02.390Z,0
2016-05-08T02:38:02.315Z,0
2016-05-08T02:39:02.208Z,0
2016-05-08T02:40:02.226Z,0
2016-05-08T02:41:02.401Z,0
2016-05-08T02:42:02.437Z,0
2016-05-08T02:43:02.392Z,0
2016-05-08T02:44:02.739Z,0
2016-05-08T02:45:02.806Z,4
2016-05-08T02:46:02.871Z,4
2016-05-08T02:47:02.339Z,0
2016-05-08T02:48:02.532Z,0
2016-05-08T02:49:16.769Z,4
2016-05-08T02:50:03.586Z,4
2016-05-08T02:51:02.966Z,4
2016-05-08T02:52:03.024Z,4
2016-05-08T02:53:02.830Z,4
2016-05-08T02:54:16.575Z,4
2016-05-08T02:55:02.801Z,8
2016-05-08T02:56:03.294Z,8
2016-05-08T02:57:02.848Z,8
2016-05-08T02:58:02.837Z,8
2016-05-08T02:59:02.686Z,12
2016-05-08T03:01:03.055Z,16
2016-05-08T03:02:02.856Z,20
2016-05-08T03:03:02.859Z,20
2016-05-08T03:04:16.800Z,24
2016-05-08T03:05:02.850Z,28
2016-05-08T03:06:03.120Z,32
2016-05-08T03:07:03.123Z,36
2016-05-08T03:09:02.879Z,48
2016-05-08T03:10:02.882Z,52
2016-05-08T03:11:03.276Z,60
2016-05-08T03:12:02.982Z,72
2016-05-08T03:13:02.922Z,80
2016-05-08T03:15:16.849Z,104
2016-05-08T03:16:02.898Z,112
2016-05-08T03:17:02.761Z,120
2016-05-08T03:18:02.920Z,136
2016-05-08T03:19:02.813Z,152
2016-05-08T03:20:03.159Z,168
2016-05-08T03:21:02.804Z,188
2016-05-08T03:22:02.946Z,204
2016-05-08T03:23:03.152Z,224
2016-05-08T03:24:02.967Z,244
2016-05-08T03:25:03.782Z,268
2016-05-08T03:26:17.222Z,296
2016-05-08T03:27:17.257Z,316
2016-05-08T03:28:03.853Z,336
2016-05-08T03:29:02.481Z,364
2016-05-08T03:30:02.858Z,388
2016-05-08T03:31:02.956Z,420
2016-05-08T03:32:02.972Z,448
2016-05-08T03:33:03.023Z,480
2016-05-08T03:34:02.853Z,512
2016-05-08T03:35:02.980Z,544
2016-05-08T03:36:02.969Z,580
2016-05-08T03:37:03.189Z,620
2016-05-08T03:38:02.880Z,656
2016-05-08T03:39:02.991Z,696
2016-05-08T03:40:03.041Z,728
2016-05-08T03:41:17.091Z,768
2016-05-08T03:42:02.937Z,792
2016-05-08T03:43:03.160Z,828
2016-05-08T03:44:03.458Z,880
2016-05-08T03:45:17.118Z,952
2016-05-08T03:46:03.448Z,996
2016-05-08T03:47:03.248Z,1052
2016-05-08T03:48:03.235Z,1104
2016-05-08T03:49:03.066Z,1148
2016-05-08T03:50:03.068Z,1192
2016-05-08T03:51:03.274Z,1236
2016-05-08T03:52:03.292Z,1280
2016-05-08T03:53:03.092Z,1328
2016-05-08T03:54:03.282Z,1372
2016-05-08T03:55:03.879Z,1420
2016-05-08T03:56:03.522Z,1468
2016-05-08T03:57:03.322Z,1512
2016-05-08T03:59:03.311Z,1600
2016-05-08T04:00:02.486Z,1640
2016-05-08T04:01:02.864Z,1688
2016-05-08T04:02:03.101Z,1724
2016-05-08T04:03:02.978Z,1768
2016-05-08T04:04:03.325Z,1808
2016-05-08T04:05:02.936Z,1848
2016-05-08T04:06:03.314Z,1888
2016-05-08T04:07:02.880Z,1928
2016-05-08T04:08:03.102Z,1968
2016-05-08T04:09:03.135Z,2008
2016-05-08T04:10:03.372Z,2048
2016-05-08T04:12:03.128Z,2120
2016-05-08T04:13:03.896Z,2160
2016-05-08T04:14:03.196Z,2196
2016-05-08T04:15:03.166Z,2236
2016-05-08T04:16:03.138Z,2268
2016-05-08T04:17:03.188Z,2300
2016-05-08T04:18:03.191Z,2332
2016-05-08T04:19:03.021Z,2364
2016-05-08T04:20:07.821Z,2400
2016-05-08T04:21:17.652Z,2432
2016-05-08T04:22:17.249Z,2460
2016-05-08T04:23:03.079Z,2484
2016-05-08T04:24:03.847Z,2508
2016-05-08T04:25:03.397Z,2536
2016-05-08T04:26:03.196Z,2564
2016-05-08T04:27:03.106Z,2592
2016-05-08T04:28:03.390Z,2616
2016-05-08T04:29:03.236Z,2648
2016-05-08T04:30:03.238Z,2676
2016-05-08T04:31:03.413Z,2704
2016-05-08T04:32:03.417Z,2736
2016-05-08T04:33:02.762Z,2756
2016-05-08T04:34:03.249Z,2780
2016-05-08T04:35:03.220Z,2804
2016-05-08T04:36:03.238Z,2832
2016-05-08T04:37:17.789Z,2868
2016-05-08T04:38:03.275Z,2892
2016-05-08T04:39:03.669Z,2920
2016-05-08T04:40:03.249Z,2940
2016-05-08T04:42:03.177Z,3000
2016-05-08T04:43:03.351Z,3028
2016-05-08T04:44:03.307Z,3052
2016-05-08T04:45:03.311Z,3076
2016-05-08T04:46:03.281Z,3100
2016-05-08T04:47:03.503Z,3128
2016-05-08T04:48:03.318Z,3144
2016-05-08T04:49:03.148Z,3168
2016-05-08T04:50:03.620Z,3180
2016-05-08T04:51:03.186Z,3192
2016-05-08T04:52:03.360Z,3208
2016-05-08T04:53:03.144Z,3228
2016-05-08T04:55:03.571Z,3260
2016-05-08T04:56:03.542Z,3272
2016-05-08T04:57:03.343Z,3288
2016-05-08T04:58:04.392Z,3304
2016-05-08T04:59:03.597Z,3316
2016-05-08T05:00:03.194Z,3332
2016-05-08T05:01:03.603Z,3348
2016-05-08T05:02:03.215Z,3364
2016-05-08T05:03:03.406Z,3376
2016-05-08T05:04:03.423Z,3380
2016-05-08T05:05:03.411Z,3388
2016-05-08T05:06:03.428Z,3396
2016-05-08T05:07:03.603Z,3412
2016-05-08T05:08:03.638Z,3424
2016-05-08T05:09:03.875Z,3436
2016-05-08T05:10:17.564Z,3444
2016-05-08T05:11:03.474Z,3452
2016-05-08T05:12:03.274Z,3460
2016-05-08T05:13:17.510Z,3480
2016-05-08T05:15:03.500Z,3500
2016-05-08T05:16:03.424Z,3516
2016-05-08T05:17:03.552Z,3520
2016-05-08T05:18:03.446Z,3536
2016-05-08T05:19:03.292Z,3548
2016-05-08T05:20:03.451Z,3556
2016-05-08T05:21:03.469Z,3564
2016-05-08T05:22:16.238Z,3576
2016-05-08T05:23:03.474Z,3580
2016-05-08T05:24:03.181Z,3584
2016-05-08T05:25:03.371Z,3596
2016-05-08T05:26:03.562Z,3608
2016-05-08T05:27:03.189Z,3616
2016-05-08T05:28:03.363Z,3624
2016-05-08T05:29:03.506Z,3628
2016-05-08T05:30:03.743Z,3640
2016-05-08T05:31:03.387Z,3648
2016-05-08T05:32:03.718Z,3652
2016-05-08T05:33:03.548Z,3664
2016-05-08T05:34:03.536Z,3672
2016-05-08T05:35:03.539Z,3684
2016-05-08T05:36:03.542Z,3696
2016-05-08T05:37:03.559Z,3708
2016-05-08T05:38:03.139Z,3724
2016-05-08T05:39:03.564Z,3728
2016-05-08T05:40:03.364Z,3736
2016-05-08T05:41:03.992Z,3748
2016-05-08T05:42:03.792Z,3752
2016-05-08T05:43:03.997Z,3756
2016-05-08T05:44:03.593Z,3760
2016-05-08T05:45:03.643Z,3764
2016-05-08T05:46:03.616Z,3764
2016-05-08T05:47:03.633Z,3776
2016-05-08T05:48:03.636Z,3784
2016-05-08T05:49:03.841Z,3788
2016-05-08T05:50:03.844Z,3792
2016-05-08T05:51:03.487Z,3800
2016-05-08T05:52:03.663Z,3796
2016-05-08T05:53:03.634Z,3804
2016-05-08T05:55:03.514Z,3820
2016-05-08T05:57:03.675Z,3832
2016-05-08T05:58:03.272Z,3836
2016-05-08T05:59:03.681Z,3836
2016-05-08T06:00:03.684Z,3840
2016-05-08T06:01:03.576Z,3848
2016-05-08T06:02:03.204Z,3860
2016-05-08T06:03:03.754Z,3860
2016-05-08T06:04:03.710Z,3868
2016-05-08T06:05:03.932Z,3876
2016-05-08T06:06:03.934Z,3880
2016-05-08T06:07:03.983Z,3892
2016-05-08T06:08:04.189Z,3908
2016-05-08T06:09:03.755Z,3948
2016-05-08T06:10:03.772Z,4008
2016-05-08T06:11:03.792Z,3984
2016-05-08T06:12:03.778Z,3944
2016-05-08T06:13:04.000Z,3956
2016-05-08T06:14:04.206Z,3964
2016-05-08T06:15:03.786Z,4000
2016-05-08T06:16:03.821Z,4108
2016-05-08T06:17:03.698Z,4464
2016-05-08T06:18:03.841Z,4700
2016-05-08T06:19:03.875Z,4340
2016-05-08T06:20:03.832Z,4048
2016-05-08T06:21:04.052Z,4020
2016-05-08T06:22:03.665Z,4024
2016-05-08T06:23:04.104Z,4032
2016-05-08T06:25:03.891Z,4056
2016-05-08T06:26:03.565Z,4072
2016-05-08T06:27:03.913Z,4080
2016-05-08T06:28:03.571Z,4100
2016-05-08T06:29:03.949Z,4116
2016-05-08T06:30:04.108Z,4128
2016-05-08T06:31:03.970Z,4136
2016-05-08T06:32:03.895Z,4144
2016-05-08T06:33:04.178Z,4148
2016-05-08T06:34:03.915Z,4144
2016-05-08T06:36:03.953Z,4156
2016-05-08T06:37:03.986Z,4160
2016-05-08T06:38:03.973Z,4160
2016-05-08T06:39:03.803Z,4164
2016-05-08T06:40:03.994Z,4168
2016-05-08T06:41:04.044Z,4176
2016-05-08T06:42:04.172Z,4192
2016-05-08T06:43:04.331Z,4212
2016-05-08T06:44:03.864Z,4312
2016-05-08T06:45:04.258Z,4908
2016-05-08T06:46:04.245Z,6068
2016-05-08T06:47:04.044Z,6716
2016-05-08T06:48:04.032Z,6052
2016-05-08T06:49:03.956Z,5376
2016-05-08T06:50:04.068Z,4900
2016-05-08T06:51:04.071Z,4836
2016-05-08T06:52:04.074Z,4752
2016-05-08T06:53:04.280Z,4360
2016-05-08T06:54:04.079Z,4276
2016-05-08T06:55:04.097Z,4264
2016-05-08T06:56:04.162Z,4228
2016-05-08T06:57:03.962Z,4216
2016-05-08T06:58:04.651Z,4204
2016-05-08T06:59:04.170Z,4220
2016-05-08T07:00:04.345Z,4240
2016-05-08T07:01:04.145Z,4252
2016-05-08T07:02:04.585Z,4360
2016-05-08T07:03:04.197Z,4292
2016-05-08T07:04:04.356Z,4328
2016-05-08T07:05:04.343Z,4404
2016-05-08T07:06:04.173Z,4404
2016-05-08T07:07:04.379Z,4220
2016-05-08T07:08:03.881Z,4220
2016-05-08T07:09:04.244Z,4212
2016-05-08T07:10:04.059Z,4220
2016-05-08T07:11:04.202Z,4224
2016-05-08T07:12:04.205Z,4248
2016-05-08T07:13:04.989Z,4252
2016-05-08T07:14:04.445Z,4288
2016-05-08T07:15:04.105Z,4296
2016-05-08T07:16:04.107Z,4300
2016-05-08T07:17:04.110Z,4324
2016-05-08T07:18:04.518Z,4372
2016-05-08T07:19:04.286Z,4416
2016-05-08T07:20:04.696Z,4424
2016-05-08T07:21:04.291Z,4432
2016-05-08T07:22:18.420Z,4456
2016-05-08T07:23:04.313Z,4436
2016-05-08T07:24:04.316Z,4464
2016-05-08T07:25:04.538Z,4480
2016-05-08T07:26:04.196Z,4480
2016-05-08T07:27:04.340Z,4572
2016-05-08T07:28:04.655Z,4604
2016-05-08T07:29:04.360Z,4464
2016-05-08T07:30:04.362Z,4440
2016-05-08T07:31:04.382Z,4460
2016-05-08T07:32:04.243Z,4472
2016-05-08T07:33:04.418Z,4452
2016-05-08T07:34:04.827Z,4456
2016-05-08T07:35:04.673Z,4452
2016-05-08T07:36:04.911Z,4448
2016-05-08T07:37:18.523Z,4492
2016-05-08T07:38:04.338Z,4408
2016-05-08T07:39:04.481Z,4416
2016-05-08T07:40:04.483Z,4424
2016-05-08T07:41:04.471Z,4412
2016-05-08T07:42:04.473Z,4428
2016-05-08T07:43:05.976Z,4456
2016-05-08T07:44:04.525Z,4444
2016-05-08T07:45:04.560Z,4536
2016-05-08T07:46:04.516Z,4900
2016-05-08T07:47:04.534Z,4800
2016-05-08T07:48:04.771Z,4448
2016-05-08T07:49:18.648Z,4456
2016-05-08T07:50:04.557Z,4468
2016-05-08T07:51:04.591Z,4492
2016-05-08T07:52:04.610Z,4484
2016-05-08T07:53:04.644Z,4460
2016-05-08T07:54:18.880Z,4428
2016-05-08T07:55:04.649Z,4428
2016-05-08T07:56:04.886Z,4448
2016-05-08T07:57:04.623Z,4464
2016-05-08T07:58:04.829Z,4456
2016-05-08T07:59:04.660Z,4476
2016-05-08T08:00:04.725Z,4480
2016-05-08T08:01:04.071Z,4484
2016-05-08T08:02:04.684Z,4512
2016-05-08T08:03:05.092Z,4536
2016-05-08T08:05:04.582Z,4592
2016-05-08T08:06:04.726Z,4576
2016-05-08T08:07:04.744Z,4564
2016-05-08T08:08:04.747Z,4556
2016-05-08T08:09:04.765Z,4568
2016-05-08T08:10:04.767Z,4592
2016-05-08T08:11:04.958Z,4636
2016-05-08T08:12:18.726Z,4640
2016-05-08T08:13:06.197Z,4632
2016-05-08T08:14:04.841Z,4668
2016-05-08T08:15:04.844Z,4692
2016-05-08T08:16:05.081Z,4688
2016-05-08T08:17:04.833Z,4688
2016-05-08T08:18:04.367Z,4704
2016-05-08T08:19:04.839Z,4744
2016-05-08T08:20:18.982Z,4820
2016-05-08T08:21:04.875Z,4872
2016-05-08T08:22:04.941Z,4880
2016-05-08T08:23:04.896Z,4852
2016-05-08T08:24:04.930Z,4820
2016-05-08T08:25:04.933Z,4836
2016-05-08T08:26:04.966Z,4860
2016-05-08T08:27:04.985Z,4832
2016-05-08T08:28:05.066Z,4760
2016-05-08T08:29:04.804Z,4780
2016-05-08T08:30:04.852Z,4724
2016-05-08T08:31:04.855Z,4944
2016-05-08T08:32:05.280Z,4768
2016-05-08T08:33:05.423Z,4760
2016-05-08T08:34:05.223Z,4852
2016-05-08T08:35:05.037Z,4936
2016-05-08T08:36:05.056Z,4988
2016-05-08T08:37:04.934Z,5088
2016-05-08T08:38:05.281Z,5088
2016-05-08T08:39:05.111Z,5052
2016-05-08T08:40:05.145Z,5068
2016-05-08T08:41:05.101Z,5796
2016-05-08T08:42:05.104Z,5848
2016-05-08T08:43:05.137Z,5156
2016-05-08T08:44:05.171Z,5104
2016-05-08T08:45:05.174Z,5136
2016-05-08T08:46:05.145Z,5160
2016-05-08T08:47:05.195Z,5156
2016-05-08T08:48:05.166Z,5112
2016-05-08T08:49:05.200Z,5036
2016-05-08T08:50:05.203Z,5028
2016-05-08T08:51:05.472Z,5016
2016-05-08T08:52:05.443Z,5064
2016-05-08T08:53:05.211Z,5120
2016-05-08T08:54:05.135Z,5180
2016-05-08T08:55:05.123Z,5252
2016-05-08T08:56:05.704Z,5312
2016-05-08T08:57:05.518Z,5488
2016-05-08T08:58:20.288Z,5856
2016-05-08T08:59:06.618Z,5964
2016-05-08T09:00:05.355Z,6108
2016-05-08T09:01:19.608Z,6204
2016-05-08T09:02:05.360Z,6504
2016-05-08T09:03:05.348Z,6448
2016-05-08T09:04:05.225Z,6244
2016-05-08T09:05:05.368Z,5948
2016-05-08T09:06:05.434Z,5996
2016-05-08T09:07:05.342Z,6080
2016-05-08T09:08:05.612Z,6272
2016-05-08T09:09:05.645Z,6992
2016-05-08T09:10:04.975Z,7672
2016-05-08T09:11:19.979Z,10852
2016-05-08T09:12:05.512Z,12032
2016-05-08T09:13:07.031Z,9684
2016-05-08T09:15:05.552Z,6916
2016-05-08T09:16:19.992Z,6132
2016-05-08T09:17:05.385Z,5672
2016-05-08T09:18:05.794Z,5776
2016-05-08T09:19:05.843Z,8040
2016-05-08T09:20:05.581Z,11656
2016-05-08T09:21:05.787Z,14288
2016-05-08T09:22:06.039Z,14540
2016-05-08T09:23:05.449Z,14980
2016-05-08T09:24:19.529Z,15076
2016-05-08T09:25:05.625Z,14720
2016-05-08T09:26:05.457Z,12568
2016-05-08T09:27:05.490Z,9412
2016-05-08T09:28:05.649Z,7468
2016-05-08T09:29:05.558Z,7592
2016-05-08T09:30:05.718Z,7512
2016-05-08T09:31:05.407Z,6748
2016-05-08T09:32:05.894Z,7040
2016-05-08T09:33:05.568Z,6668
2016-05-08T09:34:05.729Z,7016
2016-05-08T09:35:05.777Z,7100
2016-05-08T09:36:05.608Z,7260
2016-05-08T09:37:05.829Z,6180
2016-05-08T09:38:17.114Z,7156
2016-05-08T09:39:06.085Z,7952
2016-05-08T09:40:05.806Z,7884
2016-05-08T09:41:05.840Z,8908
2016-05-08T09:42:06.062Z,11348
2016-05-08T09:43:05.877Z,12368
2016-05-08T09:44:06.270Z,14820
2016-05-08T09:45:06.288Z,13788
2016-05-08T09:46:05.869Z,15364
2016-05-08T09:47:05.935Z,14084
2016-05-08T09:48:06.422Z,14132
2016-05-08T09:49:05.909Z,14712
2016-05-08T09:50:05.927Z,13436
2016-05-08T09:51:05.758Z,12160
2016-05-08T09:52:05.948Z,12532
2016-05-08T09:53:05.794Z,12756
2016-05-08T09:54:06.235Z,13936
2016-05-08T09:55:05.971Z,15404
2016-05-08T09:56:05.991Z,11272
2016-05-08T09:57:06.008Z,10116
2016-05-08T09:58:05.730Z,8976
2016-05-08T09:59:05.858Z,9692
2016-05-08T10:00:06.298Z,11300
2016-05-08T10:01:05.910Z,11644
2016-05-08T10:02:06.271Z,13096
2016-05-08T10:03:06.290Z,13232
2016-05-08T10:04:06.137Z,9000
2016-05-08T10:05:06.124Z,9248
2016-05-08T10:06:06.329Z,8064
2016-05-08T10:07:06.145Z,8520
2016-05-08T10:08:06.351Z,9288
2016-05-08T10:09:06.150Z,10904
2016-05-08T10:10:06.215Z,13812
2016-05-08T10:11:06.217Z,16388
2016-05-08T10:12:06.267Z,18336
2016-05-08T10:13:06.459Z,19552
2016-05-08T10:14:06.225Z,20096
2016-05-08T10:15:06.073Z,20864
2016-05-08T10:16:06.309Z,19008
2016-05-08T10:17:06.437Z,15764
2016-05-08T10:18:06.503Z,17984
2016-05-08T10:19:06.145Z,17376
2016-05-08T10:20:06.320Z,17536
2016-05-08T10:21:06.323Z,13620
2016-05-08T10:22:06.372Z,12784
2016-05-08T10:23:06.375Z,12548
2016-05-08T10:24:06.264Z,11600
2016-05-08T10:25:06.595Z,11512
2016-05-08T10:26:06.300Z,13420
2016-05-08T10:27:07.053Z,18432
2016-05-08T10:28:06.430Z,18464
2016-05-08T10:29:06.402Z,17760
2016-05-08T10:30:20.499Z,17184
2016-05-08T10:31:06.455Z,16264
2016-05-08T10:32:06.457Z,15312
2016-05-08T10:33:06.710Z,13776
2016-05-08T10:34:06.525Z,12300
2016-05-08T10:35:06.559Z,10524
2016-05-08T10:36:06.546Z,11492
2016-05-08T10:37:06.548Z,14732
2016-05-08T10:38:06.738Z,14364
2016-05-08T10:39:06.757Z,12476
2016-05-08T10:40:06.572Z,13564
2016-05-08T10:41:06.434Z,14792
2016-05-08T10:42:06.812Z,14724
2016-05-08T10:43:07.284Z,15420
2016-05-08T10:44:06.473Z,16032
2016-05-08T10:45:06.507Z,15440
2016-05-08T10:46:06.635Z,15012
2016-05-08T10:47:07.060Z,15292
2016-05-08T10:48:06.687Z,15012
2016-05-08T10:49:06.237Z,16832
2016-05-08T10:50:06.568Z,19360
2016-05-08T10:51:06.743Z,19872
2016-05-08T10:52:06.948Z,20768
2016-05-08T10:53:06.748Z,23136
2016-05-08T10:54:06.797Z,22336
2016-05-08T10:55:06.769Z,20160
2016-05-08T10:56:06.787Z,19904
2016-05-08T10:57:06.790Z,18848
2016-05-08T10:58:08.605Z,19648
2016-05-08T10:59:06.827Z,22528
2016-05-08T11:00:06.845Z,22976
2016-05-08T11:01:06.847Z,20096
2016-05-08T11:02:06.897Z,18336
2016-05-08T11:03:07.290Z,17728
2016-05-08T11:04:06.996Z,16512
2016-05-08T11:05:07.014Z,15120
2016-05-08T11:06:06.938Z,15584
2016-05-08T11:07:06.677Z,17408
2016-05-08T11:08:06.960Z,19488
2016-05-08T11:09:07.384Z,19840
2016-05-08T11:10:07.028Z,18624
2016-05-08T11:11:07.046Z,17664
2016-05-08T11:12:07.221Z,16232
2016-05-08T11:13:07.629Z,14892
2016-05-08T11:14:07.054Z,12988
2016-05-08T11:15:06.963Z,12340
2016-05-08T11:16:21.170Z,11296
2016-05-08T11:17:07.360Z,10796
2016-05-08T11:18:07.143Z,11644
2016-05-08T11:19:06.990Z,11576
2016-05-08T11:20:07.164Z,13000
2016-05-08T11:21:07.198Z,14804
2016-05-08T11:22:06.731Z,14528
2016-05-08T11:23:07.047Z,15144
2016-05-08T11:24:07.237Z,14860
2016-05-08T11:25:07.069Z,13584
2016-05-08T11:26:07.117Z,14092
2016-05-08T11:27:07.324Z,13348
2016-05-08T11:28:07.264Z,11968
2016-05-08T11:29:07.297Z,10952
2016-05-08T11:30:07.285Z,10412
2016-05-08T11:31:07.240Z,10316
2016-05-08T11:32:07.666Z,9788
2016-05-08T11:33:07.356Z,9800
2016-05-08T11:34:07.405Z,9644
2016-05-08T11:35:06.908Z,10048
2016-05-08T11:36:07.426Z,10076
2016-05-08T11:37:07.491Z,9652
2016-05-08T11:38:07.604Z,9020
2016-05-08T11:39:07.684Z,8168
2016-05-08T11:40:07.437Z,7708
2016-05-08T11:41:07.299Z,7668
2016-05-08T11:42:07.489Z,8180
2016-05-08T11:43:07.382Z,8812
2016-05-08T11:44:07.495Z,9536
2016-05-08T11:45:07.512Z,10840
2016-05-08T11:46:07.406Z,12052
2016-05-08T11:47:07.392Z,12908
2016-05-08T11:48:21.897Z,15424
2016-05-08T11:49:07.504Z,18336
2016-05-08T11:50:21.798Z,19552
2016-05-08T11:51:07.797Z,20416
2016-05-08T11:52:08.622Z,20480
2016-05-08T11:53:08.068Z,18944
2016-05-08T11:54:07.898Z,17920
2016-05-08T11:55:07.931Z,18432
2016-05-08T11:56:07.793Z,15472
2016-05-08T11:57:08.419Z,12548
2016-05-08T11:58:08.133Z,12072
2016-05-08T11:59:22.110Z,13628
2016-05-08T12:00:08.087Z,14084
2016-05-08T12:01:08.126Z,13020
2016-05-08T12:02:07.603Z,11428
2016-05-08T12:03:08.312Z,10204
2016-05-08T12:04:08.331Z,11532
2016-05-08T12:05:07.868Z,14112
2016-05-08T12:06:08.231Z,16032
2016-05-08T12:07:07.877Z,18336
2016-05-08T12:09:22.321Z,18976
2016-05-08T12:10:08.466Z,17408
2016-05-08T12:11:08.250Z,17440
2016-05-08T12:12:08.316Z,18880
2016-05-08T12:13:08.006Z,19520
2016-05-08T12:14:08.305Z,19584
2016-05-08T12:15:08.199Z,18912
2016-05-08T12:16:08.326Z,17792
2016-05-08T12:17:08.579Z,17344
2016-05-08T12:18:08.566Z,17216
2016-05-08T12:19:08.460Z,17184
2016-05-08T12:20:08.635Z,16280
2016-05-08T12:21:08.356Z,16272
2016-05-08T12:22:08.437Z,16312
2016-05-08T12:23:08.486Z,16068
2016-05-08T12:24:08.317Z,16640
2016-05-08T12:25:22.382Z,17216
2016-05-08T12:26:08.244Z,17760
2016-05-08T12:27:08.544Z,19552
2016-05-08T12:28:08.813Z,20352
2016-05-08T12:29:08.549Z,20512
2016-05-08T12:30:08.552Z,19296
2016-05-08T12:31:08.602Z,17920
2016-05-08T12:32:08.588Z,17760
2016-05-08T12:33:22.685Z,18016
2016-05-08T12:34:08.828Z,18080
2016-05-08T12:35:08.675Z,18336
2016-05-08T12:36:08.991Z,18464
2016-05-08T12:37:08.524Z,18336
2016-05-08T12:38:08.511Z,17952
2016-05-08T12:39:08.732Z,17760
2016-05-08T12:40:08.735Z,17952
2016-05-08T12:41:08.754Z,19360
2016-05-08T12:42:08.834Z,19968
2016-05-08T12:43:08.993Z,20032
2016-05-08T12:44:08.621Z,20064
2016-05-08T12:45:08.764Z,20128
2016-05-08T12:46:09.220Z,19040
2016-05-08T12:47:22.910Z,17632
2016-05-08T12:48:08.881Z,18176
2016-05-08T12:49:08.869Z,16480
2016-05-08T12:50:09.089Z,14564
2016-05-08T12:51:09.092Z,13840
2016-05-08T12:52:08.643Z,14908
2016-05-08T12:53:08.755Z,16672
2016-05-08T12:54:08.945Z,17760
2016-05-08T12:55:08.931Z,19488
2016-05-08T12:56:08.778Z,21120
2016-05-08T12:57:08.968Z,21952
2016-05-08T12:58:08.861Z,20896
2016-05-08T12:59:08.896Z,20192
2016-05-08T13:00:09.258Z,20224
2016-05-08T13:01:08.902Z,19392
2016-05-08T13:02:08.919Z,18528
2016-05-08T13:03:09.094Z,17824
2016-05-08T13:04:09.284Z,16768
2016-05-08T13:05:09.287Z,17536
2016-05-08T13:06:09.196Z,17088
2016-05-08T13:07:09.026Z,17664
2016-05-08T13:08:12.170Z,18432
2016-05-08T13:09:08.766Z,19232
2016-05-08T13:10:09.207Z,19424
2016-05-08T13:11:08.709Z,19360
2016-05-08T13:12:09.508Z,18816
2016-05-08T13:13:08.762Z,18016
2016-05-08T13:14:09.076Z,17472
2016-05-08T13:15:09.095Z,19424
2016-05-08T13:16:09.253Z,20832
2016-05-08T13:17:09.679Z,21024
2016-05-08T13:18:09.322Z,20320
2016-05-08T13:19:09.293Z,20640
2016-05-08T13:20:23.592Z,20352
2016-05-08T13:21:09.173Z,20000
2016-05-08T13:22:09.036Z,19872
2016-05-08T13:24:09.369Z,19808
2016-05-08T13:25:09.403Z,20448
2016-05-08T13:26:09.655Z,18752
2016-05-08T13:27:09.689Z,17440
2016-05-08T13:28:10.099Z,16736
2016-05-08T13:29:09.648Z,16096
2016-05-08T13:30:23.604Z,16672
2016-05-08T13:31:09.903Z,16800
2016-05-08T13:32:09.953Z,15780
2016-05-08T13:33:09.768Z,15044
2016-05-08T13:34:09.396Z,14684
2016-05-08T13:36:09.448Z,13612
2016-05-08T13:37:09.435Z,12544
2016-05-08T13:38:10.063Z,12208
2016-05-08T13:39:09.613Z,12356
2016-05-08T13:40:09.615Z,12752
2016-05-08T13:41:09.180Z,13200
2016-05-08T13:42:09.668Z,12476
2016-05-08T13:43:09.857Z,10024
2016-05-08T13:44:09.454Z,7828
2016-05-08T13:45:09.691Z,8984
2016-05-08T13:46:09.943Z,8968
2016-05-08T13:47:09.946Z,8820
2016-05-08T13:48:10.011Z,8968
2016-05-08T13:49:09.795Z,8608
2016-05-08T13:50:10.221Z,6984